Time;durP1;ratioP1;P1;durP2;ratioP2;P2;SDS_P1;SDS_P2;PMS_P1;PMS_P2;Temp;Humidity;BMP_temperature;BMP_pressure;BME280_temperature;BME280_humidity;BME280_pressure;Samples;Min_cycle;Max_cycle;Signal;HPM_P1;HPM_P2
2021/04/03 00:02:00;;;;;;;;;;;15.40;61.90;;;;;;5028533;28;19990;-58
2021/04/03 00:04:25;;;;;;;;;;;15.40;62.00;;;;;;5027541;28;19913;-56
2021/04/03 00:06:50;;;;;;;;;;;15.40;62.00;;;;;;5028674;28;19928;-60
2021/04/03 00:09:16;;;;;;;;;;;15.40;62.10;;;;;;5026297;28;19924;-57
2021/04/03 00:11:41;;;;;;;;;;;15.40;62.10;;;;;;5027005;28;19913;-61
2021/04/03 00:14:07;;;;;;;;;;;15.30;62.00;;;;;;5028907;28;19917;-58
2021/04/03 00:16:32;;;;;;;;;;;15.30;62.00;;;;;;5028245;28;19916;-57
2021/04/03 00:18:58;;;;;;;;;;;15.30;62.10;;;;;;5026651;28;19919;-59
2021/04/03 00:21:23;;;;;;;;;;;15.20;62.20;;;;;;5028530;28;19913;-57
2021/04/03 00:23:49;;;;;;;;;;;15.20;62.10;;;;;;5026031;28;19909;-59
2021/04/03 00:26:15;;;;;;;;;;;15.20;62.20;;;;;;5027451;28;19917;-59
2021/04/03 00:28:40;;;;;;;;;;;15.10;62.10;;;;;;5028430;28;19913;-57
2021/04/03 00:31:06;;;;;;;;;;;15.10;62.20;;;;;;5028247;28;19918;-61
2021/04/03 00:33:31;;;;;;;;;;;15.10;62.30;;;;;;5027321;28;20315;-58
2021/04/03 00:35:56;;;;;;;;;;;15.10;62.30;;;;;;5026686;28;19909;-57
2021/04/03 00:38:22;;;;;;;;;;;15.00;62.30;;;;;;5026145;28;19964;-59
2021/04/03 00:40:48;;;;;;;;;;;15.00;62.30;;;;;;5028298;28;19924;-56
2021/04/03 00:43:14;;;;;;;;;;;15.00;62.30;;;;;;5028446;28;19913;-59
2021/04/03 00:45:39;;;;;;;;;;;15.00;62.30;;;;;;5026071;28;19971;-58
2021/04/03 00:48:05;;;;;;;;;;;15.00;62.30;;;;;;5027470;28;19909;-57
2021/04/03 00:50:35;;;;;;;;;;;14.90;62.30;;;;;;5026134;28;19924;-60
2021/04/03 00:53:00;;;;;;;;;;;14.90;62.30;;;;;;5026036;28;19913;-56
2021/04/03 00:55:26;;;;;;;;;;;14.80;62.30;;;;;;5028250;28;19917;-58
2021/04/03 00:57:51;;;;;;;;;;;14.80;62.50;;;;;;5027779;28;19913;-60
2021/04/03 01:00:17;;;;;;;;;;;14.80;62.50;;;;;;5027120;28;19917;-57
2021/04/03 01:02:42;;;;;;;;;;;14.70;62.50;;;;;;5024616;28;19916;-55
2021/04/03 01:05:08;;;;;;;;;;;14.70;62.50;;;;;;5027438;28;19917;-56
2021/04/03 01:07:34;;;;;;;;;;;14.70;62.50;;;;;;5027466;28;19917;-61
2021/04/03 01:09:59;;;;;;;;;;;14.70;62.50;;;;;;5026757;28;20019;-59
2021/04/03 01:12:25;;;;;;;;;;;14.70;62.50;;;;;;5024571;28;19936;-59
2021/04/03 01:14:53;;;;;;;;;;;14.60;62.50;;;;;;5025229;28;19913;-57
2021/04/03 01:17:29;;;;;;;;;;;14.60;62.60;;;;;;5025368;28;19952;-57
2021/04/03 01:20:03;;;;;;;;;;;14.60;62.60;;;;;;5027808;28;20004;-60
2021/04/03 01:22:40;;;;;;;;;;;14.40;62.50;;;;;;5027753;28;19924;-60
2021/04/03 01:25:15;;;;;;;;;;;14.50;62.60;;;;;;5023388;28;19913;-59
2021/04/03 01:27:46;;;;;;;;;;;14.50;62.60;;;;;;5026577;28;19921;-57
2021/04/03 01:30:13;;;;;;;;;;;14.40;62.60;;;;;;5024400;28;19914;-58
2021/04/03 01:32:49;;;;;;;;;;;14.40;62.80;;;;;;5025539;28;19913;-60
2021/04/03 01:35:20;;;;;;;;;;;14.40;62.80;;;;;;5025171;28;19913;-59
2021/04/03 01:37:47;;;;;;;;;;;14.30;62.70;;;;;;5025739;28;20315;-60
2021/04/03 01:40:13;;;;;;;;;;;14.30;62.80;;;;;;5025787;28;19927;-59
2021/04/03 01:42:39;;;;;;;;;;;14.30;62.80;;;;;;5025765;28;19909;-60
2021/04/03 01:45:04;;;;;;;;;;;14.20;62.90;;;;;;5027027;28;19909;-58
2021/04/03 01:47:30;;;;;;;;;;;14.20;62.90;;;;;;5024790;28;20288;-57
2021/04/03 01:49:56;;;;;;;;;;;14.20;62.90;;;;;;5025479;28;20396;-59
2021/04/03 01:52:22;;;;;;;;;;;14.20;62.90;;;;;;5024188;28;19915;-61
2021/04/03 01:54:49;;;;;;;;;;;14.20;63.10;;;;;;5023380;28;19921;-60
2021/04/03 01:57:15;;;;;;;;;;;14.20;62.90;;;;;;5025787;28;20377;-59
2021/04/03 01:59:40;;;;;;;;;;;14.10;63.00;;;;;;5024617;28;20361;-57
2021/04/03 02:02:06;;;;;;;;;;;14.10;63.00;;;;;;5024575;28;20284;-59
2021/04/03 02:04:31;;;;;;;;;;;14.10;63.10;;;;;;5023328;28;20031;-59
2021/04/03 02:06:56;;;;;;;;;;;14.10;63.80;;;;;;5023421;28;19909;-59
2021/04/03 02:09:22;;;;;;;;;;;14.00;63.20;;;;;;5022923;28;19912;-57
2021/04/03 02:11:48;;;;;;;;;;;14.00;63.10;;;;;;5027818;28;19928;-60
2021/04/03 02:14:14;;;;;;;;;;;14.00;63.10;;;;;;5025594;28;20348;-60
2021/04/03 02:16:39;;;;;;;;;;;14.00;63.10;;;;;;5025979;28;19940;-56
2021/04/03 02:19:08;;;;;;;;;;;13.90;63.20;;;;;;5025446;28;19917;-59
2021/04/03 02:21:34;;;;;;;;;;;13.90;63.20;;;;;;5022853;28;19921;-58
2021/04/03 02:23:59;;;;;;;;;;;13.90;63.20;;;;;;5023760;28;20307;-58
2021/04/03 02:26:25;;;;;;;;;;;13.90;63.20;;;;;;5009908;28;19913;-61
2021/04/03 02:28:50;;;;;;;;;;;13.80;63.20;;;;;;5025628;28;19913;-57
2021/04/03 02:31:16;;;;;;;;;;;13.80;63.40;;;;;;5024709;28;20353;-57
2021/04/03 02:33:41;;;;;;;;;;;13.80;63.40;;;;;;5024610;28;19909;-57
2021/04/03 02:36:07;;;;;;;;;;;13.70;63.50;;;;;;5023194;28;19917;-59
2021/04/03 02:38:32;;;;;;;;;;;13.70;63.40;;;;;;5007523;28;19991;-58
2021/04/03 02:40:58;;;;;;;;;;;13.70;63.50;;;;;;5025850;28;20015;-61
2021/04/03 02:43:42;;;;;;;;;;;13.70;63.60;;;;;;5023243;28;20280;-59
2021/04/03 02:46:11;;;;;;;;;;;13.70;63.60;;;;;;5025128;28;20384;-60
2021/04/03 02:48:37;;;;;;;;;;;13.70;63.70;;;;;;5022470;28;19913;-57
2021/04/03 02:51:02;;;;;;;;;;;13.60;63.60;;;;;;5023723;28;20268;-58
2021/04/03 02:53:29;;;;;;;;;;;13.60;63.70;;;;;;5007673;28;19921;-60
2021/04/03 02:55:55;;;;;;;;;;;13.60;63.60;;;;;;5023357;28;20327;-56
2021/04/03 02:58:20;;;;;;;;;;;13.50;63.60;;;;;;5024070;28;19948;-59
2021/04/03 03:00:46;;;;;;;;;;;13.50;63.60;;;;;;5023475;28;19921;-60
2021/04/03 03:03:11;;;;;;;;;;;13.50;63.60;;;;;;5024354;28;20353;-60
2021/04/03 03:05:37;;;;;;;;;;;13.50;63.70;;;;;;5027742;28;19917;-59
2021/04/03 03:08:03;;;;;;;;;;;13.50;63.70;;;;;;5027908;28;20144;-58
2021/04/03 03:10:28;;;;;;;;;;;13.40;63.80;;;;;;5009773;28;19963;-60
2021/04/03 03:12:53;;;;;;;;;;;13.40;63.90;;;;;;5026533;28;20368;-57
2021/04/03 03:15:19;;;;;;;;;;;13.40;63.80;;;;;;5027248;28;19955;-60
2021/04/03 03:17:44;;;;;;;;;;;13.40;63.80;;;;;;5029645;28;19909;-59
2021/04/03 03:20:12;;;;;;;;;;;13.30;63.90;;;;;;5029653;28;19909;-55
2021/04/03 03:22:37;;;;;;;;;;;13.30;64.00;;;;;;5029366;28;19913;-57
2021/04/03 03:25:03;;;;;;;;;;;13.30;64.10;;;;;;5024985;28;20304;-59
2021/04/03 03:27:28;;;;;;;;;;;13.30;64.10;;;;;;5008240;28;21255;-60
2021/04/03 03:29:54;;;;;;;;;;;13.20;64.00;;;;;;5029538;28;19921;-60
2021/04/03 03:32:19;;;;;;;;;;;13.20;64.00;;;;;;5027415;28;19919;-56
2021/04/03 03:34:45;;;;;;;;;;;13.20;64.10;;;;;;5027215;28;19913;-57
2021/04/03 03:37:10;;;;;;;;;;;13.20;64.10;;;;;;5026130;28;19917;-57
2021/04/03 03:39:36;;;;;;;;;;;13.10;64.10;;;;;;5025360;28;19991;-58
2021/04/03 03:42:02;;;;;;;;;;;13.10;64.20;;;;;;5027442;28;19921;-60
2021/04/03 03:44:27;;;;;;;;;;;13.10;64.20;;;;;;5030172;28;20065;-59
2021/04/03 03:46:53;;;;;;;;;;;13.10;64.20;;;;;;5027517;28;20246;-59
2021/04/03 03:49:18;;;;;;;;;;;13.10;64.30;;;;;;5028343;28;19979;-59
2021/04/03 03:51:44;;;;;;;;;;;13.00;64.30;;;;;;5027249;28;20426;-57
2021/04/03 03:54:09;;;;;;;;;;;13.00;64.40;;;;;;5009827;28;19909;-56
2021/04/03 03:56:35;;;;;;;;;;;12.90;64.30;;;;;;5028962;28;19917;-58
2021/04/03 03:59:00;;;;;;;;;;;13.00;64.40;;;;;;5028148;28;20358;-56
2021/04/03 04:01:26;;;;;;;;;;;12.90;64.40;;;;;;5029029;28;19956;-55
2021/04/03 04:03:51;;;;;;;;;;;12.90;64.50;;;;;;5026152;28;19932;-60
2021/04/03 04:06:16;;;;;;;;;;;12.90;64.60;;;;;;5008514;28;19909;-56
2021/04/03 04:08:43;;;;;;;;;;;12.80;64.40;;;;;;5028469;28;19913;-59
2021/04/03 04:11:09;;;;;;;;;;;12.80;64.50;;;;;;5028677;28;19917;-57
2021/04/03 04:13:36;;;;;;;;;;;12.80;64.60;;;;;;5027659;28;19909;-60
2021/04/03 04:16:02;;;;;;;;;;;12.80;64.50;;;;;;5027452;28;19956;-59
2021/04/03 04:18:28;;;;;;;;;;;12.80;64.60;;;;;;5026295;28;20397;-59
2021/04/03 04:20:53;;;;;;;;;;;12.80;64.70;;;;;;5027173;28;19917;-60
2021/04/03 04:23:19;;;;;;;;;;;12.70;64.60;;;;;;5028597;28;19913;-57
2021/04/03 04:25:44;;;;;;;;;;;12.70;64.70;;;;;;5028309;28;19954;-58
2021/04/03 04:28:10;;;;;;;;;;;12.70;64.80;;;;;;5028216;28;19909;-60
2021/04/03 04:30:35;;;;;;;;;;;12.60;64.70;;;;;;5026207;28;19957;-57
2021/04/03 04:33:00;;;;;;;;;;;12.60;64.70;;;;;;5027101;28;19967;-57
2021/04/03 04:35:26;;;;;;;;;;;12.60;64.90;;;;;;5028065;28;19917;-59
2021/04/03 04:37:51;;;;;;;;;;;12.60;65.00;;;;;;5025698;28;19913;-59
2021/04/03 04:40:17;;;;;;;;;;;12.60;65.00;;;;;;5027686;28;19925;-56
2021/04/03 04:42:42;;;;;;;;;;;12.50;64.80;;;;;;5028162;28;19920;-57
2021/04/03 04:45:08;;;;;;;;;;;12.50;64.90;;;;;;5026395;28;19913;-59
2021/04/03 04:47:34;;;;;;;;;;;12.60;65.00;;;;;;5028002;28;19910;-58
2021/04/03 04:49:59;;;;;;;;;;;12.50;64.90;;;;;;5027916;28;19921;-61
2021/04/03 04:52:25;;;;;;;;;;;12.50;64.90;;;;;;5027872;28;19920;-60
2021/04/03 04:54:50;;;;;;;;;;;12.40;64.90;;;;;;5026805;28;19918;-60
2021/04/03 04:57:16;;;;;;;;;;;12.40;64.90;;;;;;5027218;28;20360;-56
2021/04/03 04:59:41;;;;;;;;;;;12.40;65.00;;;;;;5041212;28;19918;-57
2021/04/03 05:02:07;;;;;;;;;;;12.40;65.00;;;;;;5027738;28;19913;-57
2021/04/03 05:04:32;;;;;;;;;;;12.40;65.10;;;;;;5027472;28;19917;-60
2021/04/03 05:06:58;;;;;;;;;;;12.40;65.00;;;;;;5026176;28;19917;-57
2021/04/03 05:09:23;;;;;;;;;;;12.30;65.00;;;;;;5026242;28;19925;-57
2021/04/03 05:11:49;;;;;;;;;;;12.30;65.00;;;;;;5026881;28;20372;-57
2021/04/03 05:14:14;;;;;;;;;;;12.30;65.00;;;;;;5026986;28;19913;-57
2021/04/03 05:16:40;;;;;;;;;;;12.30;65.00;;;;;;5027632;28;19913;-57
2021/04/03 05:19:05;;;;;;;;;;;12.30;65.10;;;;;;5026720;28;20400;-58
2021/04/03 05:21:31;;;;;;;;;;;12.20;65.10;;;;;;5025750;28;19917;-57
2021/04/03 05:23:56;;;;;;;;;;;12.20;65.10;;;;;;5024659;28;20107;-58
2021/04/03 05:26:22;;;;;;;;;;;12.20;65.10;;;;;;5026128;28;19916;-58
2021/04/03 05:28:47;;;;;;;;;;;12.20;65.10;;;;;;5023389;28;19932;-58
2021/04/03 05:31:13;;;;;;;;;;;12.20;65.10;;;;;;5026524;28;19924;-57
2021/04/03 05:33:38;;;;;;;;;;;12.20;65.10;;;;;;5026001;28;20396;-59
2021/04/03 05:36:04;;;;;;;;;;;12.20;65.10;;;;;;5026259;28;19919;-58
2021/04/03 05:38:29;;;;;;;;;;;12.20;65.10;;;;;;5025011;28;19920;-59
2021/04/03 05:40:55;;;;;;;;;;;12.10;65.10;;;;;;5027632;28;20018;-59
2021/04/03 05:43:20;;;;;;;;;;;12.10;65.10;;;;;;5027003;28;19956;-59
2021/04/03 05:45:46;;;;;;;;;;;12.10;65.10;;;;;;5025526;28;19937;-59
2021/04/03 05:48:12;;;;;;;;;;;12.10;65.20;;;;;;5024934;28;19955;-56
2021/04/03 05:50:37;;;;;;;;;;;12.10;65.10;;;;;;5025751;28;19939;-58
2021/04/03 05:53:03;;;;;;;;;;;12.10;65.20;;;;;;5024555;28;19913;-56
2021/04/03 05:55:28;;;;;;;;;;;12.20;65.20;;;;;;5027778;28;19913;-60
2021/04/03 05:57:54;;;;;;;;;;;12.10;65.20;;;;;;5026332;28;19921;-60
2021/04/03 06:00:19;;;;;;;;;;;12.10;65.20;;;;;;5025979;28;19913;-57
2021/04/03 06:02:45;;;;;;;;;;;12.10;65.20;;;;;;5024539;28;19924;-60
2021/04/03 06:05:10;;;;;;;;;;;12.10;65.20;;;;;;5023710;28;19917;-59
2021/04/03 06:07:36;;;;;;;;;;;12.10;65.20;;;;;;5025858;28;19917;-56
2021/04/03 06:10:03;;;;;;;;;;;12.00;65.10;;;;;;5023763;28;20288;-57
2021/04/03 06:12:38;;;;;;;;;;;12.00;65.20;;;;;;5023666;28;20369;-61
2021/04/03 06:15:03;;;;;;;;;;;12.00;65.10;;;;;;5025930;28;19971;-61
2021/04/03 06:17:29;;;;;;;;;;;12.00;65.20;;;;;;5022865;28;19909;-56
2021/04/03 06:19:54;;;;;;;;;;;12.00;65.20;;;;;;5024398;28;19939;-57
2021/04/03 06:22:20;;;;;;;;;;;12.00;65.30;;;;;;5026519;28;20547;-61
2021/04/03 06:24:45;;;;;;;;;;;12.00;65.20;;;;;;5025642;28;20274;-60
2021/04/03 06:27:11;;;;;;;;;;;11.90;65.20;;;;;;5023478;28;19913;-59
2021/04/03 06:29:45;;;;;;;;;;;12.00;65.20;;;;;;5022914;28;21107;-59
2021/04/03 06:32:11;;;;;;;;;;;12.00;65.30;;;;;;5022902;28;19913;-57
2021/04/03 06:34:38;;;;;;;;;;;12.00;65.30;;;;;;5025013;28;20292;-60
2021/04/03 06:37:04;;;;;;;;;;;11.90;65.10;;;;;;5025472;28;20273;-60
2021/04/03 06:39:29;;;;;;;;;;;12.00;65.20;;;;;;5025003;28;19921;-58
2021/04/03 06:41:55;;;;;;;;;;;11.90;65.20;;;;;;5006111;28;20261;-58
2021/04/03 06:44:20;;;;;;;;;;;12.00;65.20;;;;;;5024893;28;19936;-57
2021/04/03 06:46:46;;;;;;;;;;;11.90;65.10;;;;;;5025795;28;19909;-59
2021/04/03 06:49:12;;;;;;;;;;;11.90;65.10;;;;;;5024434;28;19931;-60
2021/04/03 06:51:37;;;;;;;;;;;11.90;65.10;;;;;;5024493;28;19920;-59
2021/04/03 06:54:03;;;;;;;;;;;11.90;65.10;;;;;;5024118;28;19913;-60
2021/04/03 06:56:34;;;;;;;;;;;11.90;65.10;;;;;;5024374;28;19953;-58
2021/04/03 06:59:00;;;;;;;;;;;11.90;65.10;;;;;;5025582;28;19913;-57
2021/04/03 07:01:26;;;;;;;;;;;11.90;65.10;;;;;;5024337;28;19933;-57
2021/04/03 07:03:53;;;;;;;;;;;11.90;65.10;;;;;;5023788;28;20388;-58
2021/04/03 07:06:22;;;;;;;;;;;11.90;65.00;;;;;;5020656;28;20295;-58
2021/04/03 07:08:48;;;;;;;;;;;11.90;65.00;;;;;;5022107;28;20262;-61
2021/04/03 07:11:13;;;;;;;;;;;11.90;64.80;;;;;;5021941;28;19916;-57
2021/04/03 07:13:39;;;;;;;;;;;11.80;64.60;;;;;;5023892;28;19917;-60
2021/04/03 07:16:04;;;;;;;;;;;11.80;64.60;;;;;;5023131;28;19913;-57
2021/04/03 07:18:30;;;;;;;;;;;11.80;64.60;;;;;;5022509;28;19978;-58
2021/04/03 07:20:55;;;;;;;;;;;11.80;64.70;;;;;;5022756;28;19928;-55
2021/04/03 07:23:21;;;;;;;;;;;11.70;64.60;;;;;;5023008;28;20004;-58
2021/04/03 07:25:46;;;;;;;;;;;11.70;64.40;;;;;;5024226;28;19964;-57
2021/04/03 07:28:14;;;;;;;;;;;11.70;64.40;;;;;;5025425;28;19935;-59
2021/04/03 07:30:49;;;;;;;;;;;11.70;64.20;;;;;;5022639;28;19917;-60
2021/04/03 07:33:18;;;;;;;;;;;11.70;64.20;;;;;;5024285;28;20067;-57
2021/04/03 07:35:47;;;;;;;;;;;11.70;64.20;;;;;;5024016;28;19913;-58
2021/04/03 07:38:13;;;;;;;;;;;11.70;64.30;;;;;;5024632;28;19917;-55
2021/04/03 07:40:39;;;;;;;;;;;11.70;64.30;;;;;;5025237;28;20411;-55
2021/04/03 07:43:25;;;;;;;;;;;11.70;64.30;;;;;;5022701;28;20140;-57
2021/04/03 07:45:50;;;;;;;;;;;11.70;64.10;;;;;;5024120;28;19945;-59
2021/04/03 07:48:34;;;;;;;;;;;11.70;64.00;;;;;;5021320;28;20419;-57
2021/04/03 07:51:00;;;;;;;;;;;11.70;63.90;;;;;;5027592;28;19920;-59
2021/04/03 07:53:35;;;;;;;;;;;11.60;63.90;;;;;;5028199;28;19914;-58
2021/04/03 07:56:01;;;;;;;;;;;11.60;64.60;;;;;;5026631;28;20252;-56
2021/04/03 07:58:26;;;;;;;;;;;11.60;63.90;;;;;;5025701;28;19936;-58
2021/04/03 08:00:52;;;;;;;;;;;11.60;63.90;;;;;;5026798;28;19909;-60
2021/04/03 08:03:24;;;;;;;;;;;11.60;63.90;;;;;;5028585;28;20800;-55
2021/04/03 08:05:50;;;;;;;;;;;11.60;63.90;;;;;;5027156;28;20270;-56
2021/04/03 08:08:18;;;;;;;;;;;11.50;63.80;;;;;;5010025;28;19919;-57
2021/04/03 08:10:44;;;;;;;;;;;11.60;63.80;;;;;;5024402;28;19927;-58
2021/04/03 08:13:09;;;;;;;;;;;11.60;63.70;;;;;;5026238;28;20355;-59
2021/04/03 08:15:35;;;;;;;;;;;11.60;63.60;;;;;;5025443;28;20375;-60
2021/04/03 08:18:01;;;;;;;;;;;11.60;63.40;;;;;;5029563;28;20409;-56
2021/04/03 08:20:26;;;;;;;;;;;11.60;63.30;;;;;;5026490;28;19924;-58
2021/04/03 08:22:59;;;;;;;;;;;11.60;63.20;;;;;;5022643;28;19917;-59
2021/04/03 08:25:25;;;;;;;;;;;11.60;63.10;;;;;;5025133;28;19917;-58
2021/04/03 08:27:50;;;;;;;;;;;11.60;62.90;;;;;;5008691;28;19910;-56
2021/04/03 08:30:22;;;;;;;;;;;11.60;62.90;;;;;;5025700;28;19955;-58
2021/04/03 08:33:09;;;;;;;;;;;11.60;62.90;;;;;;5026496;28;19921;-57
2021/04/03 08:35:35;;;;;;;;;;;11.60;62.90;;;;;;5025410;28;19949;-58
2021/04/03 08:38:11;;;;;;;;;;;11.60;62.90;;;;;;5026817;28;19917;-57
2021/04/03 08:40:36;;;;;;;;;;;11.60;62.90;;;;;;5026677;28;20020;-56
2021/04/03 08:43:03;;;;;;;;;;;11.60;63.00;;;;;;5027734;28;20280;-59
2021/04/03 08:45:38;;;;;;;;;;;11.50;63.00;;;;;;5027063;28;19919;-56
2021/04/03 08:48:06;;;;;;;;;;;11.50;63.00;;;;;;5008830;28;20360;-58
2021/04/03 08:50:32;;;;;;;;;;;11.50;63.00;;;;;;5027047;28;19917;-59
2021/04/03 08:53:00;;;;;;;;;;;11.50;62.90;;;;;;5025171;28;19940;-58
2021/04/03 08:55:26;;;;;;;;;;;11.50;63.00;;;;;;5027023;28;19913;-57
2021/04/03 08:57:51;;;;;;;;;;;11.50;63.00;;;;;;5026974;28;20388;-60
2021/04/03 09:00:19;;;;;;;;;;;11.40;62.90;;;;;;5043201;28;19920;-59
2021/04/03 09:02:44;;;;;;;;;;;11.50;63.00;;;;;;5026447;28;19917;-56
2021/04/03 09:05:11;;;;;;;;;;;11.50;62.90;;;;;;5023557;28;20255;-57
2021/04/03 09:07:36;;;;;;;;;;;11.50;62.90;;;;;;5025454;28;19957;-57
2021/04/03 09:10:03;;;;;;;;;;;11.50;62.80;;;;;;5026799;28;19972;-60
2021/04/03 09:12:28;;;;;;;;;;;11.50;62.70;;;;;;5027045;28;19917;-58
2021/04/03 09:14:54;;;;;;;;;;;11.50;62.60;;;;;;5024537;28;20258;-56
2021/04/03 09:17:20;;;;;;;;;;;11.50;62.50;;;;;;5025728;28;19917;-57
2021/04/03 09:19:45;;;;;;;;;;;11.50;62.50;;;;;;5025999;28;20347;-56
2021/04/03 09:22:20;;;;;;;;;;;11.50;62.30;;;;;;5025519;28;19920;-58
2021/04/03 09:24:58;;;;;;;;;;;11.50;62.30;;;;;;5026552;28;19917;-60
2021/04/03 09:27:25;;;;;;;;;;;11.50;62.20;;;;;;5025001;28;19935;-58
2021/04/03 09:29:55;;;;;;;;;;;11.50;62.10;;;;;;5025764;28;19927;-56
2021/04/03 09:32:20;;;;;;;;;;;11.60;62.00;;;;;;5022747;28;19920;-57
2021/04/03 09:34:46;;;;;;;;;;;11.50;61.90;;;;;;5024622;28;19909;-55
2021/04/03 09:37:12;;;;;;;;;;;11.50;61.80;;;;;;5025861;28;19944;-58
2021/04/03 09:39:41;;;;;;;;;;;11.50;61.70;;;;;;5026442;28;19921;-60
2021/04/03 09:42:10;;;;;;;;;;;11.50;61.70;;;;;;5026163;28;19940;-55
2021/04/03 09:44:35;;;;;;;;;;;11.50;61.80;;;;;;5025639;28;19913;-60
2021/04/03 09:47:00;;;;;;;;;;;11.50;61.70;;;;;;5025839;28;19966;-59
2021/04/03 09:49:26;;;;;;;;;;;11.50;61.50;;;;;;5024672;28;19924;-56
2021/04/03 09:51:51;;;;;;;;;;;11.50;61.60;;;;;;5025212;28;19909;-60
2021/04/03 09:54:17;;;;;;;;;;;11.50;61.70;;;;;;5023494;28;20308;-58
2021/04/03 09:56:42;;;;;;;;;;;11.60;61.70;;;;;;5025255;28;19920;-59
2021/04/03 09:59:08;;;;;;;;;;;11.60;61.70;;;;;;5024963;28;19921;-59
2021/04/03 10:01:33;;;;;;;;;;;11.60;61.60;;;;;;5025854;28;19917;-57
2021/04/03 10:04:01;;;;;;;;;;;11.60;61.50;;;;;;5023460;28;20003;-57
2021/04/03 10:06:26;;;;;;;;;;;11.60;61.50;;;;;;5023382;28;19909;-59
2021/04/03 10:08:52;;;;;;;;;;;11.60;61.40;;;;;;5025403;28;19941;-56
2021/04/03 10:11:17;;;;;;;;;;;11.70;61.30;;;;;;5022802;28;19992;-57
2021/04/03 10:13:44;;;;;;;;;;;11.70;61.30;;;;;;5026123;28;19913;-55
2021/04/03 10:16:09;;;;;;;;;;;11.70;61.30;;;;;;5024542;28;19917;-59
2021/04/03 10:18:35;;;;;;;;;;;11.70;61.30;;;;;;5025332;28;19959;-57
2021/04/03 10:21:01;;;;;;;;;;;11.80;61.10;;;;;;5023819;28;19952;-57
2021/04/03 10:23:26;;;;;;;;;;;11.80;61.00;;;;;;5024278;28;19913;-55
2021/04/03 10:25:52;;;;;;;;;;;11.80;61.00;;;;;;5023456;28;19916;-60
2021/04/03 10:28:17;;;;;;;;;;;11.90;60.90;;;;;;5025183;28;19917;-56
2021/04/03 10:30:43;;;;;;;;;;;11.90;60.90;;;;;;5025348;28;19916;-61
2021/04/03 10:33:08;;;;;;;;;;;11.90;60.70;;;;;;5024765;28;19921;-57
2021/04/03 10:35:34;;;;;;;;;;;11.90;60.80;;;;;;5024080;28;19924;-59
2021/04/03 10:37:59;;;;;;;;;;;11.90;60.60;;;;;;5024790;28;20455;-59
2021/04/03 10:40:25;;;;;;;;;;;12.00;60.40;;;;;;5023637;28;19936;-57
2021/04/03 10:42:50;;;;;;;;;;;12.00;60.10;;;;;;5022538;28;19952;-61
2021/04/03 10:45:15;;;;;;;;;;;12.00;60.20;;;;;;5024748;28;19913;-59
2021/04/03 10:47:41;;;;;;;;;;;12.10;60.20;;;;;;5023125;28;19917;-61
2021/04/03 10:50:06;;;;;;;;;;;12.10;60.10;;;;;;5022717;28;20305;-59
2021/04/03 10:52:32;;;;;;;;;;;12.10;59.90;;;;;;5006268;28;20411;-59
2021/04/03 10:54:57;;;;;;;;;;;12.10;60.10;;;;;;5025992;28;19920;-56
2021/04/03 10:57:23;;;;;;;;;;;12.20;60.00;;;;;;5025099;28;19917;-59
2021/04/03 10:59:49;;;;;;;;;;;12.20;59.90;;;;;;5024510;28;19983;-59
2021/04/03 11:02:14;;;;;;;;;;;12.20;59.20;;;;;;5005194;28;19913;-59
2021/04/03 11:04:40;;;;;;;;;;;12.20;59.50;;;;;;5024860;28;19957;-58
2021/04/03 11:07:06;;;;;;;;;;;12.20;59.30;;;;;;5022613;28;19921;-60
2021/04/03 11:09:31;;;;;;;;;;;12.20;59.70;;;;;;5025263;28;20398;-59
2021/04/03 11:11:57;;;;;;;;;;;12.20;59.30;;;;;;5024706;28;19924;-56
2021/04/03 11:14:22;;;;;;;;;;;12.20;59.00;;;;;;5024495;28;19913;-56
2021/04/03 11:16:48;;;;;;;;;;;12.20;59.10;;;;;;5024055;28;19955;-58
2021/04/03 11:19:13;;;;;;;;;;;12.30;59.20;;;;;;5007333;28;19909;-60
2021/04/03 11:21:39;;;;;;;;;;;12.30;59.20;;;;;;5025079;28;19913;-56
2021/04/03 11:24:04;;;;;;;;;;;12.30;58.90;;;;;;5027089;28;19971;-58
2021/04/03 11:26:30;;;;;;;;;;;12.30;59.10;;;;;;5028536;28;19913;-58
2021/04/03 11:28:55;;;;;;;;;;;12.30;58.80;;;;;;5027302;28;19979;-59
2021/04/03 11:31:21;;;;;;;;;;;12.30;58.60;;;;;;5028690;28;19924;-60
2021/04/03 11:33:47;;;;;;;;;;;12.40;58.50;;;;;;5028880;28;19997;-60
2021/04/03 11:36:12;;;;;;;;;;;12.40;58.60;;;;;;5029253;28;19913;-56
2021/04/03 11:38:38;;;;;;;;;;;12.50;57.90;;;;;;5028127;28;20304;-60
2021/04/03 11:41:03;;;;;;;;;;;12.50;58.00;;;;;;5025905;28;19917;-58
2021/04/03 11:43:29;;;;;;;;;;;12.50;57.60;;;;;;5028476;28;19925;-58
2021/04/03 11:45:54;;;;;;;;;;;12.60;57.60;;;;;;5029446;28;20265;-60
2021/04/03 11:48:20;;;;;;;;;;;12.60;57.20;;;;;;5028395;28;19920;-56
2021/04/03 11:50:46;;;;;;;;;;;12.60;57.40;;;;;;5028892;28;20421;-58
2021/04/03 11:53:12;;;;;;;;;;;12.60;56.90;;;;;;5027282;28;19913;-59
2021/04/03 11:55:38;;;;;;;;;;;12.70;57.30;;;;;;5026691;28;20272;-58
2021/04/03 11:58:03;;;;;;;;;;;12.70;57.10;;;;;;5028918;28;20380;-55
2021/04/03 12:00:29;;;;;;;;;;;12.70;57.00;;;;;;5026248;28;19913;-61
2021/04/03 12:02:54;;;;;;;;;;;12.70;56.90;;;;;;5028396;28;19971;-60
2021/04/03 12:05:20;;;;;;;;;;;12.70;56.90;;;;;;5027398;28;19921;-57
2021/04/03 12:07:45;;;;;;;;;;;12.70;56.90;;;;;;5026583;28;19909;-57
2021/04/03 12:10:12;;;;;;;;;;;12.80;56.70;;;;;;5028819;28;20342;-57
2021/04/03 12:12:39;;;;;;;;;;;12.80;56.50;;;;;;5028582;28;20300;-60
2021/04/03 12:15:06;;;;;;;;;;;12.80;56.70;;;;;;5028199;28;19978;-59
2021/04/03 12:17:31;;;;;;;;;;;12.80;56.40;;;;;;5027816;28;20279;-58
2021/04/03 12:19:57;;;;;;;;;;;12.90;56.40;;;;;;5027798;28;19909;-57
2021/04/03 12:22:22;;;;;;;;;;;12.90;56.20;;;;;;5024933;28;19932;-59
2021/04/03 12:24:48;;;;;;;;;;;12.90;55.90;;;;;;5028531;28;20034;-56
2021/04/03 12:27:14;;;;;;;;;;;12.90;55.70;;;;;;5026902;28;19913;-58
2021/04/03 12:29:39;;;;;;;;;;;13.00;55.90;;;;;;5025867;28;20350;-59
2021/04/03 12:32:05;;;;;;;;;;;13.00;55.20;;;;;;5026976;28;19923;-56
2021/04/03 12:34:30;;;;;;;;;;;13.00;54.90;;;;;;5025664;28;19909;-56
2021/04/03 12:36:56;;;;;;;;;;;13.10;55.00;;;;;;5027403;28;19920;-58
2021/04/03 12:39:21;;;;;;;;;;;13.10;54.80;;;;;;5027763;28;19920;-57
2021/04/03 12:41:46;;;;;;;;;;;13.10;54.80;;;;;;5026929;28;19994;-59
2021/04/03 12:44:12;;;;;;;;;;;13.20;54.60;;;;;;5027674;28;20296;-59
2021/04/03 12:46:37;;;;;;;;;;;13.20;54.60;;;;;;5026612;28;19982;-56
2021/04/03 12:49:03;;;;;;;;;;;13.20;54.30;;;;;;5025973;28;19913;-60
2021/04/03 12:51:28;;;;;;;;;;;13.20;54.50;;;;;;5027790;28;20292;-58
2021/04/03 12:53:54;;;;;;;;;;;13.20;54.40;;;;;;5027420;28;20009;-59
2021/04/03 12:56:19;;;;;;;;;;;13.30;54.30;;;;;;5027072;28;19913;-57
2021/04/03 12:58:45;;;;;;;;;;;13.30;54.60;;;;;;5027578;28;19959;-60
2021/04/03 13:01:10;;;;;;;;;;;13.40;53.90;;;;;;5025916;28;19917;-57
2021/04/03 13:03:35;;;;;;;;;;;13.40;53.70;;;;;;5027607;28;19908;-55
2021/04/03 13:06:02;;;;;;;;;;;13.30;53.40;;;;;;5026911;28;20039;-56
2021/04/03 13:08:27;;;;;;;;;;;13.40;53.40;;;;;;5024742;28;20305;-59
2021/04/03 13:10:53;;;;;;;;;;;13.50;53.20;;;;;;5025817;28;19924;-58
2021/04/03 13:13:18;;;;;;;;;;;13.50;53.40;;;;;;5025892;28;19994;-58
2021/04/03 13:15:43;;;;;;;;;;;13.60;53.40;;;;;;5025249;28;19928;-58
2021/04/03 13:18:09;;;;;;;;;;;13.60;53.10;;;;;;5026106;28;19913;-59
2021/04/03 13:20:35;;;;;;;;;;;13.60;53.20;;;;;;5026754;28;20770;-58
2021/04/03 13:23:04;;;;;;;;;;;13.60;52.90;;;;;;5025710;28;19913;-57
2021/04/03 13:25:29;;;;;;;;;;;13.70;52.80;;;;;;5026215;28;19921;-59
2021/04/03 13:27:54;;;;;;;;;;;13.70;52.70;;;;;;5027381;28;19909;-55
2021/04/03 13:30:20;;;;;;;;;;;13.70;52.60;;;;;;5023723;28;20224;-59
2021/04/03 13:32:46;;;;;;;;;;;13.80;52.30;;;;;;5025979;28;20000;-61
2021/04/03 13:35:11;;;;;;;;;;;13.80;52.00;;;;;;5025682;28;19959;-59
2021/04/03 13:37:37;;;;;;;;;;;13.80;52.50;;;;;;5008689;28;19944;-59
2021/04/03 13:40:02;;;;;;;;;;;13.80;52.40;;;;;;5025288;28;19940;-58
2021/04/03 13:42:28;;;;;;;;;;;13.90;52.40;;;;;;5026365;28;20403;-56
2021/04/03 13:44:53;;;;;;;;;;;13.90;52.20;;;;;;5027194;28;19924;-57
2021/04/03 13:47:18;;;;;;;;;;;13.90;52.30;;;;;;5025427;28;20345;-60
2021/04/03 13:49:44;;;;;;;;;;;14.00;51.50;;;;;;5022998;28;19921;-57
2021/04/03 13:52:09;;;;;;;;;;;14.00;51.40;;;;;;5024765;28;19963;-58
2021/04/03 13:54:35;;;;;;;;;;;14.10;51.00;;;;;;5025605;28;20364;-55
2021/04/03 13:57:00;;;;;;;;;;;14.10;51.10;;;;;;5027384;28;19916;-57
2021/04/03 13:59:26;;;;;;;;;;;14.10;51.40;;;;;;5027357;28;19909;-60
2021/04/03 14:01:53;;;;;;;;;;;14.10;51.60;;;;;;5025423;28;20255;-58
2021/04/03 14:04:18;;;;;;;;;;;14.20;51.70;;;;;;5024910;28;19939;-56
2021/04/03 14:06:44;;;;;;;;;;;14.20;51.30;;;;;;5021732;28;20364;-59
2021/04/03 14:09:09;;;;;;;;;;;14.20;51.40;;;;;;5026820;28;20003;-58
2021/04/03 14:11:35;;;;;;;;;;;14.20;51.40;;;;;;5026538;28;19909;-56